sensor_id;sensor_type;location;lat;lon;timestamp;P1;durP1;ratioP1;P2;durP2;ratioP2
15748;SDS011;7976;52.526;13.326;2023-10-19T00:00:13;17.70;;;7.32;;
15748;SDS011;7976;52.526;13.326;2023-10-19T00:02:50;18.00;;;7.88;;
15748;SDS011;7976;52.526;13.326;2023-10-19T00:05:16;20.42;;;8.50;;
15748;SDS011;7976;52.526;13.326;2023-10-19T00:07:45;18.48;;;8.25;;
15748;SDS011;7976;52.526;13.326;2023-10-19T00:10:11;21.02;;;8.63;;
15748;SDS011;7976;52.526;13.326;2023-10-19T00:12:42;23.25;;;9.43;;
15748;SDS011;7976;52.526;13.326;2023-10-19T00:15:17;18.50;;;7.45;;
15748;SDS011;7976;52.526;13.326;2023-10-19T00:17:50;17.42;;;7.78;;
15748;SDS011;7976;52.526;13.326;2023-10-19T00:20:19;21.95;;;8.25;;
15748;SDS011;7976;52.526;13.326;2023-10-19T00:23:14;18.52;;;8.38;;
15748;SDS011;7976;52.526;13.326;2023-10-19T00:25:43;22.90;;;8.60;;
15748;SDS011;7976;52.526;13.326;2023-10-19T00:28:09;21.92;;;8.25;;
15748;SDS011;7976;52.526;13.326;2023-10-19T00:30:38;21.35;;;8.55;;
15748;SDS011;7976;52.526;13.326;2023-10-19T00:33:09;22.02;;;8.52;;
15748;SDS011;7976;52.526;13.326;2023-10-19T00:35:43;18.88;;;7.78;;
15748;SDS011;7976;52.526;13.326;2023-10-19T00:38:15;17.77;;;8.10;;
15748;SDS011;7976;52.526;13.326;2023-10-19T00:40:54;21.45;;;8.15;;
15748;SDS011;7976;52.526;13.326;2023-10-19T00:43:30;21.80;;;8.15;;
15748;SDS011;7976;52.526;13.326;2023-10-19T00:46:01;20.08;;;7.82;;
15748;SDS011;7976;52.526;13.326;2023-10-19T00:48:31;21.48;;;8.63;;
15748;SDS011;7976;52.526;13.326;2023-10-19T00:51:00;20.23;;;7.85;;
15748;SDS011;7976;52.526;13.326;2023-10-19T00:53:43;21.13;;;8.52;;
15748;SDS011;7976;52.526;13.326;2023-10-19T00:56:11;21.88;;;8.38;;
15748;SDS011;7976;52.526;13.326;2023-10-19T00:58:38;20.15;;;8.13;;
15748;SDS011;7976;52.526;13.326;2023-10-19T01:01:06;20.95;;;8.50;;
15748;SDS011;7976;52.526;13.326;2023-10-19T01:03:35;19.27;;;7.85;;
15748;SDS011;7976;52.526;13.326;2023-10-19T01:06:03;20.58;;;8.27;;
15748;SDS011;7976;52.526;13.326;2023-10-19T01:08:39;23.88;;;8.13;;
15748;SDS011;7976;52.526;13.326;2023-10-19T01:11:08;20.27;;;8.68;;
15748;SDS011;7976;52.526;13.326;2023-10-19T01:13:38;19.60;;;7.63;;
15748;SDS011;7976;52.526;13.326;2023-10-19T01:16:11;23.60;;;8.68;;
15748;SDS011;7976;52.526;13.326;2023-10-19T01:18:47;21.58;;;8.63;;
15748;SDS011;7976;52.526;13.326;2023-10-19T01:21:19;23.20;;;9.25;;
15748;SDS011;7976;52.526;13.326;2023-10-19T01:23:51;21.95;;;8.63;;
15748;SDS011;7976;52.526;13.326;2023-10-19T01:26:19;24.30;;;8.48;;
15748;SDS011;7976;52.526;13.326;2023-10-19T01:28:51;20.50;;;8.70;;
15748;SDS011;7976;52.526;13.326;2023-10-19T01:31:25;25.17;;;8.40;;
15748;SDS011;7976;52.526;13.326;2023-10-19T01:34:03;20.88;;;8.43;;
15748;SDS011;7976;52.526;13.326;2023-10-19T01:36:31;19.75;;;8.18;;
15748;SDS011;7976;52.526;13.326;2023-10-19T01:39:04;19.75;;;8.45;;
15748;SDS011;7976;52.526;13.326;2023-10-19T01:41:35;20.73;;;8.45;;
15748;SDS011;7976;52.526;13.326;2023-10-19T01:44:01;22.17;;;9.60;;
15748;SDS011;7976;52.526;13.326;2023-10-19T01:46:30;21.52;;;8.88;;
15748;SDS011;7976;52.526;13.326;2023-10-19T01:48:59;20.15;;;8.18;;
15748;SDS011;7976;52.526;13.326;2023-10-19T01:51:28;22.55;;;8.95;;
15748;SDS011;7976;52.526;13.326;2023-10-19T01:53:58;17.73;;;8.00;;
15748;SDS011;7976;52.526;13.326;2023-10-19T01:56:28;22.88;;;8.90;;
15748;SDS011;7976;52.526;13.326;2023-10-19T01:58:54;24.90;;;9.32;;
15748;SDS011;7976;52.526;13.326;2023-10-19T02:01:22;23.98;;;9.40;;
15748;SDS011;7976;52.526;13.326;2023-10-19T02:03:54;22.88;;;8.98;;
15748;SDS011;7976;52.526;13.326;2023-10-19T02:06:24;20.00;;;8.48;;
15748;SDS011;7976;52.526;13.326;2023-10-19T02:08:52;22.98;;;9.00;;
15748;SDS011;7976;52.526;13.326;2023-10-19T02:11:25;20.70;;;9.45;;
15748;SDS011;7976;52.526;13.326;2023-10-19T02:13:55;22.15;;;9.13;;
15748;SDS011;7976;52.526;13.326;2023-10-19T02:16:25;18.98;;;8.50;;
15748;SDS011;7976;52.526;13.326;2023-10-19T02:18:54;23.23;;;9.65;;
15748;SDS011;7976;52.526;13.326;2023-10-19T02:21:21;21.20;;;8.88;;
15748;SDS011;7976;52.526;13.326;2023-10-19T02:23:48;23.80;;;9.20;;
15748;SDS011;7976;52.526;13.326;2023-10-19T02:26:16;20.10;;;8.52;;
15748;SDS011;7976;52.526;13.326;2023-10-19T02:28:46;22.13;;;9.13;;
15748;SDS011;7976;52.526;13.326;2023-10-19T02:31:16;20.70;;;8.88;;
15748;SDS011;7976;52.526;13.326;2023-10-19T02:33:45;23.52;;;8.82;;
15748;SDS011;7976;52.526;13.326;2023-10-19T02:36:16;20.58;;;9.57;;
15748;SDS011;7976;52.526;13.326;2023-10-19T02:38:44;25.13;;;10.45;;
15748;SDS011;7976;52.526;13.326;2023-10-19T02:41:16;25.65;;;9.63;;
15748;SDS011;7976;52.526;13.326;2023-10-19T02:43:44;19.88;;;9.02;;
15748;SDS011;7976;52.526;13.326;2023-10-19T02:46:16;22.70;;;10.15;;
15748;SDS011;7976;52.526;13.326;2023-10-19T02:48:42;22.63;;;9.00;;
15748;SDS011;7976;52.526;13.326;2023-10-19T02:51:11;21.20;;;9.88;;
15748;SDS011;7976;52.526;13.326;2023-10-19T02:53:37;21.27;;;9.07;;
15748;SDS011;7976;52.526;13.326;2023-10-19T02:56:09;25.55;;;9.18;;
15748;SDS011;7976;52.526;13.326;2023-10-19T02:58:42;20.92;;;8.77;;
15748;SDS011;7976;52.526;13.326;2023-10-19T03:01:16;24.85;;;9.60;;
15748;SDS011;7976;52.526;13.326;2023-10-19T03:03:47;23.63;;;9.07;;
15748;SDS011;7976;52.526;13.326;2023-10-19T03:06:20;20.92;;;9.50;;
15748;SDS011;7976;52.526;13.326;2023-10-19T03:08:47;23.60;;;9.45;;
15748;SDS011;7976;52.526;13.326;2023-10-19T03:11:20;23.88;;;9.60;;
15748;SDS011;7976;52.526;13.326;2023-10-19T03:13:46;23.33;;;9.35;;
15748;SDS011;7976;52.526;13.326;2023-10-19T03:16:16;25.08;;;9.75;;
15748;SDS011;7976;52.526;13.326;2023-10-19T03:18:44;21.48;;;8.88;;
15748;SDS011;7976;52.526;13.326;2023-10-19T03:21:11;25.83;;;9.82;;
15748;SDS011;7976;52.526;13.326;2023-10-19T03:23:37;25.08;;;9.82;;
15748;SDS011;7976;52.526;13.326;2023-10-19T03:26:06;20.70;;;8.90;;
15748;SDS011;7976;52.526;13.326;2023-10-19T03:28:56;20.23;;;9.27;;
15748;SDS011;7976;52.526;13.326;2023-10-19T03:31:28;22.38;;;9.32;;
15748;SDS011;7976;52.526;13.326;2023-10-19T03:33:58;26.90;;;10.20;;
15748;SDS011;7976;52.526;13.326;2023-10-19T03:36:27;21.10;;;10.10;;
15748;SDS011;7976;52.526;13.326;2023-10-19T03:38:55;23.65;;;9.90;;
15748;SDS011;7976;52.526;13.326;2023-10-19T03:41:26;23.52;;;9.55;;
15748;SDS011;7976;52.526;13.326;2023-10-19T03:43:53;24.40;;;9.50;;
15748;SDS011;7976;52.526;13.326;2023-10-19T03:46:23;21.63;;;10.18;;
15748;SDS011;7976;52.526;13.326;2023-10-19T03:48:56;24.63;;;10.52;;
15748;SDS011;7976;52.526;13.326;2023-10-19T03:51:29;22.33;;;9.02;;
15748;SDS011;7976;52.526;13.326;2023-10-19T03:54:05;23.40;;;9.35;;
15748;SDS011;7976;52.526;13.326;2023-10-19T03:56:45;25.30;;;9.20;;
15748;SDS011;7976;52.526;13.326;2023-10-19T03:59:14;22.70;;;8.93;;
15748;SDS011;7976;52.526;13.326;2023-10-19T04:01:42;27.20;;;10.32;;
15748;SDS011;7976;52.526;13.326;2023-10-19T04:04:10;22.38;;;9.38;;
15748;SDS011;7976;52.526;13.326;2023-10-19T04:06:38;26.10;;;10.10;;
15748;SDS011;7976;52.526;13.326;2023-10-19T04:09:06;22.17;;;9.73;;
15748;SDS011;7976;52.526;13.326;2023-10-19T04:11:34;26.20;;;10.23;;
15748;SDS011;7976;52.526;13.326;2023-10-19T04:14:13;29.45;;;10.77;;
15748;SDS011;7976;52.526;13.326;2023-10-19T04:16:41;26.60;;;10.05;;
15748;SDS011;7976;52.526;13.326;2023-10-19T04:19:08;22.20;;;10.23;;
15748;SDS011;7976;52.526;13.326;2023-10-19T04:21:37;24.27;;;9.35;;
15748;SDS011;7976;52.526;13.326;2023-10-19T04:24:08;27.20;;;10.82;;
15748;SDS011;7976;52.526;13.326;2023-10-19T04:26:35;26.73;;;11.02;;
15748;SDS011;7976;52.526;13.326;2023-10-19T04:29:03;26.73;;;10.70;;
15748;SDS011;7976;52.526;13.326;2023-10-19T04:31:35;22.58;;;10.30;;
15748;SDS011;7976;52.526;13.326;2023-10-19T04:34:06;24.70;;;10.63;;
15748;SDS011;7976;52.526;13.326;2023-10-19T04:36:35;28.42;;;10.80;;
15748;SDS011;7976;52.526;13.326;2023-10-19T04:39:01;25.85;;;11.25;;
15748;SDS011;7976;52.526;13.326;2023-10-19T04:41:29;22.15;;;10.10;;
15748;SDS011;7976;52.526;13.326;2023-10-19T04:43:56;27.30;;;11.02;;
15748;SDS011;7976;52.526;13.326;2023-10-19T04:46:23;27.30;;;11.40;;
15748;SDS011;7976;52.526;13.326;2023-10-19T04:48:50;25.40;;;10.63;;
15748;SDS011;7976;52.526;13.326;2023-10-19T04:51:17;24.02;;;10.45;;
15748;SDS011;7976;52.526;13.326;2023-10-19T04:53:45;24.15;;;10.10;;
15748;SDS011;7976;52.526;13.326;2023-10-19T04:56:12;25.58;;;10.40;;
15748;SDS011;7976;52.526;13.326;2023-10-19T04:58:39;26.05;;;10.48;;
15748;SDS011;7976;52.526;13.326;2023-10-19T05:01:06;26.83;;;11.38;;
15748;SDS011;7976;52.526;13.326;2023-10-19T05:03:34;25.67;;;11.32;;
15748;SDS011;7976;52.526;13.326;2023-10-19T05:06:00;30.08;;;11.20;;
15748;SDS011;7976;52.526;13.326;2023-10-19T05:08:27;25.83;;;10.43;;
15748;SDS011;7976;52.526;13.326;2023-10-19T05:10:56;26.27;;;10.48;;
15748;SDS011;7976;52.526;13.326;2023-10-19T05:13:24;23.80;;;10.63;;
15748;SDS011;7976;52.526;13.326;2023-10-19T05:15:52;28.60;;;11.45;;
15748;SDS011;7976;52.526;13.326;2023-10-19T05:18:20;31.15;;;11.23;;
15748;SDS011;7976;52.526;13.326;2023-10-19T05:20:47;28.55;;;11.02;;
15748;SDS011;7976;52.526;13.326;2023-10-19T05:23:15;28.38;;;11.45;;
15748;SDS011;7976;52.526;13.326;2023-10-19T05:25:44;28.48;;;10.40;;
15748;SDS011;7976;52.526;13.326;2023-10-19T05:28:13;28.17;;;10.73;;
15748;SDS011;7976;52.526;13.326;2023-10-19T05:30:40;29.05;;;11.82;;
15748;SDS011;7976;52.526;13.326;2023-10-19T05:33:07;28.85;;;11.52;;
15748;SDS011;7976;52.526;13.326;2023-10-19T05:35:34;29.67;;;12.20;;
15748;SDS011;7976;52.526;13.326;2023-10-19T05:38:05;25.17;;;10.63;;
15748;SDS011;7976;52.526;13.326;2023-10-19T05:40:33;26.55;;;11.07;;
15748;SDS011;7976;52.526;13.326;2023-10-19T05:43:01;28.13;;;11.40;;
15748;SDS011;7976;52.526;13.326;2023-10-19T05:45:30;27.35;;;10.95;;
15748;SDS011;7976;52.526;13.326;2023-10-19T05:47:58;28.40;;;11.27;;
15748;SDS011;7976;52.526;13.326;2023-10-19T05:50:25;27.98;;;11.48;;
15748;SDS011;7976;52.526;13.326;2023-10-19T05:52:53;30.77;;;10.70;;
15748;SDS011;7976;52.526;13.326;2023-10-19T05:55:20;26.70;;;10.77;;
15748;SDS011;7976;52.526;13.326;2023-10-19T05:57:47;28.40;;;11.70;;
15748;SDS011;7976;52.526;13.326;2023-10-19T06:00:14;27.45;;;11.80;;
15748;SDS011;7976;52.526;13.326;2023-10-19T06:02:44;28.08;;;11.20;;
15748;SDS011;7976;52.526;13.326;2023-10-19T06:05:14;28.40;;;11.57;;
15748;SDS011;7976;52.526;13.326;2023-10-19T06:07:42;33.03;;;12.05;;
15748;SDS011;7976;52.526;13.326;2023-10-19T06:10:10;31.23;;;12.43;;
15748;SDS011;7976;52.526;13.326;2023-10-19T06:12:41;30.83;;;12.30;;
15748;SDS011;7976;52.526;13.326;2023-10-19T06:15:09;27.25;;;11.32;;
15748;SDS011;7976;52.526;13.326;2023-10-19T06:17:37;29.27;;;11.70;;
15748;SDS011;7976;52.526;13.326;2023-10-19T06:20:07;28.38;;;11.82;;
15748;SDS011;7976;52.526;13.326;2023-10-19T06:22:45;30.52;;;12.32;;
15748;SDS011;7976;52.526;13.326;2023-10-19T06:25:15;25.50;;;11.95;;
15748;SDS011;7976;52.526;13.326;2023-10-19T06:27:43;30.42;;;12.60;;
15748;SDS011;7976;52.526;13.326;2023-10-19T06:30:11;33.10;;;12.18;;
15748;SDS011;7976;52.526;13.326;2023-10-19T06:32:42;30.42;;;12.13;;
15748;SDS011;7976;52.526;13.326;2023-10-19T06:35:15;27.98;;;11.63;;
15748;SDS011;7976;52.526;13.326;2023-10-19T06:37:42;32.47;;;12.02;;
15748;SDS011;7976;52.526;13.326;2023-10-19T06:40:09;31.42;;;12.27;;
15748;SDS011;7976;52.526;13.326;2023-10-19T06:42:40;30.02;;;11.57;;
15748;SDS011;7976;52.526;13.326;2023-10-19T06:45:07;25.83;;;11.38;;
15748;SDS011;7976;52.526;13.326;2023-10-19T06:47:38;31.92;;;11.68;;
15748;SDS011;7976;52.526;13.326;2023-10-19T06:50:08;31.88;;;12.27;;
15748;SDS011;7976;52.526;13.326;2023-10-19T06:52:37;29.08;;;11.05;;
15748;SDS011;7976;52.526;13.326;2023-10-19T06:55:05;28.05;;;11.27;;
15748;SDS011;7976;52.526;13.326;2023-10-19T06:57:38;31.02;;;10.95;;
15748;SDS011;7976;52.526;13.326;2023-10-19T07:00:08;29.75;;;11.13;;
15748;SDS011;7976;52.526;13.326;2023-10-19T07:02:39;27.02;;;11.80;;
15748;SDS011;7976;52.526;13.326;2023-10-19T07:05:08;29.30;;;11.52;;
15748;SDS011;7976;52.526;13.326;2023-10-19T07:07:37;26.65;;;10.68;;
15748;SDS011;7976;52.526;13.326;2023-10-19T07:10:07;30.65;;;11.48;;
15748;SDS011;7976;52.526;13.326;2023-10-19T07:12:37;28.35;;;11.80;;
15748;SDS011;7976;52.526;13.326;2023-10-19T07:15:06;29.02;;;11.88;;
15748;SDS011;7976;52.526;13.326;2023-10-19T07:17:38;34.17;;;12.25;;
15748;SDS011;7976;52.526;13.326;2023-10-19T07:20:06;28.38;;;11.00;;
15748;SDS011;7976;52.526;13.326;2023-10-19T07:22:48;26.15;;;10.45;;
15748;SDS011;7976;52.526;13.326;2023-10-19T07:25:15;30.88;;;11.32;;
15748;SDS011;7976;52.526;13.326;2023-10-19T07:27:45;35.15;;;11.30;;
15748;SDS011;7976;52.526;13.326;2023-10-19T07:30:13;25.83;;;11.15;;
15748;SDS011;7976;52.526;13.326;2023-10-19T07:32:45;30.63;;;11.73;;
15748;SDS011;7976;52.526;13.326;2023-10-19T07:35:16;33.22;;;11.38;;
15748;SDS011;7976;52.526;13.326;2023-10-19T07:37:44;28.55;;;10.98;;
15748;SDS011;7976;52.526;13.326;2023-10-19T07:40:14;28.70;;;10.98;;
15748;SDS011;7976;52.526;13.326;2023-10-19T07:42:43;27.08;;;11.07;;
15748;SDS011;7976;52.526;13.326;2023-10-19T07:45:10;31.38;;;11.15;;
15748;SDS011;7976;52.526;13.326;2023-10-19T07:47:37;28.00;;;11.45;;
15748;SDS011;7976;52.526;13.326;2023-10-19T07:50:06;25.15;;;11.13;;
15748;SDS011;7976;52.526;13.326;2023-10-19T07:52:41;32.17;;;12.35;;
15748;SDS011;7976;52.526;13.326;2023-10-19T07:55:08;32.08;;;12.52;;
15748;SDS011;7976;52.526;13.326;2023-10-19T07:57:37;32.47;;;12.43;;
15748;SDS011;7976;52.526;13.326;2023-10-19T08:00:06;32.97;;;12.52;;
15748;SDS011;7976;52.526;13.326;2023-10-19T08:02:35;29.50;;;12.77;;
15748;SDS011;7976;52.526;13.326;2023-10-19T08:05:03;24.77;;;11.57;;
15748;SDS011;7976;52.526;13.326;2023-10-19T08:07:31;31.70;;;11.73;;
15748;SDS011;7976;52.526;13.326;2023-10-19T08:10:01;28.08;;;12.43;;
15748;SDS011;7976;52.526;13.326;2023-10-19T08:12:30;28.42;;;11.30;;
15748;SDS011;7976;52.526;13.326;2023-10-19T08:14:59;28.38;;;11.38;;
15748;SDS011;7976;52.526;13.326;2023-10-19T08:17:25;34.20;;;13.18;;
15748;SDS011;7976;52.526;13.326;2023-10-19T08:19:52;26.77;;;11.23;;
15748;SDS011;7976;52.526;13.326;2023-10-19T08:22:19;26.10;;;11.48;;
15748;SDS011;7976;52.526;13.326;2023-10-19T08:24:46;38.95;;;12.18;;
15748;SDS011;7976;52.526;13.326;2023-10-19T08:27:15;30.45;;;12.18;;
15748;SDS011;7976;52.526;13.326;2023-10-19T08:29:42;29.70;;;12.57;;
15748;SDS011;7976;52.526;13.326;2023-10-19T08:32:10;30.70;;;11.52;;
15748;SDS011;7976;52.526;13.326;2023-10-19T08:34:38;30.70;;;12.77;;
15748;SDS011;7976;52.526;13.326;2023-10-19T08:37:06;27.00;;;11.85;;
15748;SDS011;7976;52.526;13.326;2023-10-19T08:39:33;28.15;;;11.90;;
15748;SDS011;7976;52.526;13.326;2023-10-19T08:42:02;30.33;;;12.13;;
15748;SDS011;7976;52.526;13.326;2023-10-19T08:44:29;25.92;;;12.60;;
15748;SDS011;7976;52.526;13.326;2023-10-19T08:46:56;27.10;;;12.38;;
15748;SDS011;7976;52.526;13.326;2023-10-19T08:49:25;28.42;;;11.82;;
15748;SDS011;7976;52.526;13.326;2023-10-19T08:51:53;27.42;;;11.90;;
15748;SDS011;7976;52.526;13.326;2023-10-19T08:54:21;29.88;;;11.63;;
15748;SDS011;7976;52.526;13.326;2023-10-19T08:56:47;28.60;;;12.55;;
15748;SDS011;7976;52.526;13.326;2023-10-19T08:59:14;23.48;;;10.80;;
15748;SDS011;7976;52.526;13.326;2023-10-19T09:01:42;29.13;;;11.93;;
15748;SDS011;7976;52.526;13.326;2023-10-19T09:04:09;24.48;;;10.95;;
15748;SDS011;7976;52.526;13.326;2023-10-19T09:06:39;29.98;;;12.20;;
15748;SDS011;7976;52.526;13.326;2023-10-19T09:09:07;21.92;;;10.48;;
15748;SDS011;7976;52.526;13.326;2023-10-19T09:11:41;26.83;;;11.30;;
15748;SDS011;7976;52.526;13.326;2023-10-19T09:14:08;23.25;;;11.23;;
15748;SDS011;7976;52.526;13.326;2023-10-19T09:16:38;28.70;;;12.10;;
15748;SDS011;7976;52.526;13.326;2023-10-19T09:19:20;28.35;;;12.52;;
15748;SDS011;7976;52.526;13.326;2023-10-19T09:21:48;29.52;;;11.85;;
15748;SDS011;7976;52.526;13.326;2023-10-19T09:24:15;27.00;;;11.63;;
15748;SDS011;7976;52.526;13.326;2023-10-19T09:26:43;28.52;;;12.02;;
15748;SDS011;7976;52.526;13.326;2023-10-19T09:29:11;25.90;;;11.68;;
15748;SDS011;7976;52.526;13.326;2023-10-19T09:31:44;23.95;;;11.77;;
15748;SDS011;7976;52.526;13.326;2023-10-19T09:34:13;28.75;;;12.10;;
15748;SDS011;7976;52.526;13.326;2023-10-19T09:36:42;27.00;;;11.45;;
15748;SDS011;7976;52.526;13.326;2023-10-19T09:39:11;28.48;;;12.02;;
15748;SDS011;7976;52.526;13.326;2023-10-19T09:41:38;28.73;;;11.25;;
15748;SDS011;7976;52.526;13.326;2023-10-19T09:44:07;26.75;;;11.95;;
15748;SDS011;7976;52.526;13.326;2023-10-19T09:46:38;24.92;;;11.30;;
15748;SDS011;7976;52.526;13.326;2023-10-19T09:49:07;25.25;;;10.75;;
15748;SDS011;7976;52.526;13.326;2023-10-19T09:51:36;30.05;;;11.73;;
15748;SDS011;7976;52.526;13.326;2023-10-19T09:54:11;33.53;;;12.05;;
15748;SDS011;7976;52.526;13.326;2023-10-19T09:56:53;27.02;;;11.68;;
15748;SDS011;7976;52.526;13.326;2023-10-19T09:59:38;29.38;;;11.95;;
15748;SDS011;7976;52.526;13.326;2023-10-19T10:02:10;28.13;;;11.88;;
15748;SDS011;7976;52.526;13.326;2023-10-19T10:04:39;25.63;;;11.52;;
15748;SDS011;7976;52.526;13.326;2023-10-19T10:07:07;28.42;;;11.93;;
15748;SDS011;7976;52.526;13.326;2023-10-19T10:09:37;25.95;;;11.38;;
15748;SDS011;7976;52.526;13.326;2023-10-19T10:12:15;26.13;;;11.13;;
15748;SDS011;7976;52.526;13.326;2023-10-19T10:14:53;27.48;;;11.40;;
15748;SDS011;7976;52.526;13.326;2023-10-19T10:17:26;25.40;;;10.98;;
15748;SDS011;7976;52.526;13.326;2023-10-19T10:19:54;27.48;;;11.38;;
15748;SDS011;7976;52.526;13.326;2023-10-19T10:22:43;27.60;;;12.68;;
15748;SDS011;7976;52.526;13.326;2023-10-19T10:25:24;24.70;;;11.27;;
15748;SDS011;7976;52.526;13.326;2023-10-19T10:27:52;24.30;;;10.95;;
15748;SDS011;7976;52.526;13.326;2023-10-19T10:30:21;26.13;;;11.38;;
15748;SDS011;7976;52.526;13.326;2023-10-19T10:32:49;25.92;;;10.82;;
15748;SDS011;7976;52.526;13.326;2023-10-19T10:38:20;27.15;;;11.23;;
15748;SDS011;7976;52.526;13.326;2023-10-19T10:40:49;27.95;;;12.05;;
15748;SDS011;7976;52.526;13.326;2023-10-19T10:43:18;29.45;;;11.70;;
15748;SDS011;7976;52.526;13.326;2023-10-19T10:45:46;27.45;;;12.60;;
15748;SDS011;7976;52.526;13.326;2023-10-19T10:48:14;29.88;;;13.02;;
15748;SDS011;7976;52.526;13.326;2023-10-19T10:50:42;30.85;;;13.07;;
15748;SDS011;7976;52.526;13.326;2023-10-19T10:53:11;33.83;;;12.77;;
15748;SDS011;7976;52.526;13.326;2023-10-19T10:55:40;30.95;;;12.80;;
15748;SDS011;7976;52.526;13.326;2023-10-19T10:58:09;26.50;;;12.63;;
15748;SDS011;7976;52.526;13.326;2023-10-19T11:00:41;29.85;;;12.68;;
15748;SDS011;7976;52.526;13.326;2023-10-19T11:03:09;27.77;;;13.10;;
15748;SDS011;7976;52.526;13.326;2023-10-19T11:05:36;29.40;;;13.02;;
15748;SDS011;7976;52.526;13.326;2023-10-19T11:08:06;38.58;;;12.95;;
15748;SDS011;7976;52.526;13.326;2023-10-19T11:10:37;32.00;;;14.18;;
15748;SDS011;7976;52.526;13.326;2023-10-19T11:13:04;29.42;;;13.35;;
15748;SDS011;7976;52.526;13.326;2023-10-19T11:15:34;32.90;;;15.00;;
15748;SDS011;7976;52.526;13.326;2023-10-19T11:18:03;31.88;;;14.27;;
15748;SDS011;7976;52.526;13.326;2023-10-19T11:20:32;29.63;;;13.65;;
15748;SDS011;7976;52.526;13.326;2023-10-19T11:23:01;30.70;;;13.48;;
15748;SDS011;7976;52.526;13.326;2023-10-19T11:25:29;32.90;;;13.75;;
15748;SDS011;7976;52.526;13.326;2023-10-19T11:27:57;33.13;;;13.75;;
15748;SDS011;7976;52.526;13.326;2023-10-19T11:30:26;31.77;;;13.73;;
15748;SDS011;7976;52.526;13.326;2023-10-19T11:32:58;34.08;;;14.75;;
15748;SDS011;7976;52.526;13.326;2023-10-19T11:35:26;35.67;;;15.18;;
15748;SDS011;7976;52.526;13.326;2023-10-19T11:37:56;37.60;;;16.13;;
15748;SDS011;7976;52.526;13.326;2023-10-19T11:40:26;32.92;;;14.93;;
15748;SDS011;7976;52.526;13.326;2023-10-19T11:42:54;31.52;;;14.95;;
15748;SDS011;7976;52.526;13.326;2023-10-19T11:45:22;33.17;;;14.18;;
15748;SDS011;7976;52.526;13.326;2023-10-19T11:47:50;34.08;;;14.68;;
15748;SDS011;7976;52.526;13.326;2023-10-19T11:50:26;34.20;;;14.77;;
15748;SDS011;7976;52.526;13.326;2023-10-19T11:52:53;35.80;;;13.70;;
15748;SDS011;7976;52.526;13.326;2023-10-19T11:55:22;34.05;;;14.70;;
15748;SDS011;7976;52.526;13.326;2023-10-19T11:57:50;32.47;;;14.18;;
15748;SDS011;7976;52.526;13.326;2023-10-19T12:00:17;32.15;;;14.50;;
15748;SDS011;7976;52.526;13.326;2023-10-19T12:02:47;30.42;;;14.88;;
15748;SDS011;7976;52.526;13.326;2023-10-19T12:05:14;38.25;;;15.90;;
15748;SDS011;7976;52.526;13.326;2023-10-19T12:07:43;32.58;;;14.00;;
15748;SDS011;7976;52.526;13.326;2023-10-19T12:10:11;34.17;;;15.73;;
15748;SDS011;7976;52.526;13.326;2023-10-19T12:12:38;36.05;;;15.50;;
15748;SDS011;7976;52.526;13.326;2023-10-19T12:15:06;33.13;;;14.60;;
15748;SDS011;7976;52.526;13.326;2023-10-19T12:17:37;40.15;;;15.48;;
15748;SDS011;7976;52.526;13.326;2023-10-19T12:20:05;33.40;;;15.05;;
15748;SDS011;7976;52.526;13.326;2023-10-19T12:22:36;33.15;;;14.77;;
15748;SDS011;7976;52.526;13.326;2023-10-19T12:25:06;38.03;;;15.55;;
15748;SDS011;7976;52.526;13.326;2023-10-19T12:27:33;37.67;;;15.75;;
15748;SDS011;7976;52.526;13.326;2023-10-19T12:30:03;33.72;;;14.95;;
15748;SDS011;7976;52.526;13.326;2023-10-19T12:32:47;36.30;;;15.02;;
15748;SDS011;7976;52.526;13.326;2023-10-19T12:35:16;38.30;;;16.67;;
15748;SDS011;7976;52.526;13.326;2023-10-19T12:37:49;37.97;;;15.38;;
15748;SDS011;7976;52.526;13.326;2023-10-19T12:40:27;37.30;;;16.02;;
15748;SDS011;7976;52.526;13.326;2023-10-19T12:42:56;37.72;;;17.52;;
15748;SDS011;7976;52.526;13.326;2023-10-19T12:45:28;36.03;;;16.58;;
15748;SDS011;7976;52.526;13.326;2023-10-19T12:48:02;39.03;;;16.48;;
15748;SDS011;7976;52.526;13.326;2023-10-19T12:50:33;32.25;;;15.70;;
15748;SDS011;7976;52.526;13.326;2023-10-19T12:53:01;35.05;;;15.63;;
15748;SDS011;7976;52.526;13.326;2023-10-19T12:55:30;35.20;;;15.95;;
15748;SDS011;7976;52.526;13.326;2023-10-19T12:57:57;35.05;;;16.33;;
15748;SDS011;7976;52.526;13.326;2023-10-19T13:00:34;38.40;;;16.67;;
15748;SDS011;7976;52.526;13.326;2023-10-19T13:03:10;37.95;;;16.65;;
15748;SDS011;7976;52.526;13.326;2023-10-19T13:05:42;38.90;;;16.55;;
15748;SDS011;7976;52.526;13.326;2023-10-19T13:08:11;38.30;;;16.88;;
15748;SDS011;7976;52.526;13.326;2023-10-19T13:10:41;39.67;;;17.08;;
15748;SDS011;7976;52.526;13.326;2023-10-19T13:13:11;36.15;;;16.80;;
15748;SDS011;7976;52.526;13.326;2023-10-19T13:15:40;35.42;;;16.70;;
15748;SDS011;7976;52.526;13.326;2023-10-19T13:18:10;36.72;;;16.48;;
15748;SDS011;7976;52.526;13.326;2023-10-19T13:20:45;36.47;;;16.90;;
15748;SDS011;7976;52.526;13.326;2023-10-19T13:23:14;33.67;;;15.38;;
15748;SDS011;7976;52.526;13.326;2023-10-19T13:25:43;35.83;;;16.23;;
15748;SDS011;7976;52.526;13.326;2023-10-19T13:28:18;39.72;;;16.50;;
15748;SDS011;7976;52.526;13.326;2023-10-19T13:30:49;40.75;;;16.52;;
15748;SDS011;7976;52.526;13.326;2023-10-19T13:33:19;39.17;;;16.95;;
15748;SDS011;7976;52.526;13.326;2023-10-19T13:35:49;38.90;;;17.10;;
15748;SDS011;7976;52.526;13.326;2023-10-19T13:38:17;36.80;;;16.10;;
15748;SDS011;7976;52.526;13.326;2023-10-19T13:40:51;39.75;;;17.13;;
15748;SDS011;7976;52.526;13.326;2023-10-19T13:43:19;34.97;;;16.20;;
15748;SDS011;7976;52.526;13.326;2023-10-19T13:45:47;39.70;;;16.33;;
15748;SDS011;7976;52.526;13.326;2023-10-19T13:48:14;41.25;;;16.80;;
15748;SDS011;7976;52.526;13.326;2023-10-19T13:50:44;39.97;;;17.60;;
15748;SDS011;7976;52.526;13.326;2023-10-19T13:53:14;39.00;;;16.58;;
15748;SDS011;7976;52.526;13.326;2023-10-19T13:55:42;40.85;;;16.80;;
15748;SDS011;7976;52.526;13.326;2023-10-19T13:58:10;39.10;;;17.15;;
15748;SDS011;7976;52.526;13.326;2023-10-19T14:00:40;37.50;;;15.50;;
15748;SDS011;7976;52.526;13.326;2023-10-19T14:03:08;39.08;;;17.67;;
15748;SDS011;7976;52.526;13.326;2023-10-19T14:05:39;34.42;;;16.40;;
15748;SDS011;7976;52.526;13.326;2023-10-19T14:08:13;41.22;;;16.85;;
15748;SDS011;7976;52.526;13.326;2023-10-19T14:10:41;36.25;;;16.55;;
15748;SDS011;7976;52.526;13.326;2023-10-19T14:13:12;37.20;;;17.30;;
15748;SDS011;7976;52.526;13.326;2023-10-19T14:15:40;38.33;;;17.48;;
15748;SDS011;7976;52.526;13.326;2023-10-19T14:18:08;34.47;;;17.30;;
15748;SDS011;7976;52.526;13.326;2023-10-19T14:20:36;37.00;;;16.40;;
15748;SDS011;7976;52.526;13.326;2023-10-19T14:23:06;40.95;;;18.20;;
15748;SDS011;7976;52.526;13.326;2023-10-19T14:25:36;40.45;;;17.15;;
15748;SDS011;7976;52.526;13.326;2023-10-19T14:28:04;36.90;;;17.33;;
15748;SDS011;7976;52.526;13.326;2023-10-19T14:30:45;49.33;;;19.02;;
15748;SDS011;7976;52.526;13.326;2023-10-19T14:33:26;41.00;;;18.17;;
15748;SDS011;7976;52.526;13.326;2023-10-19T14:35:54;39.53;;;18.02;;
15748;SDS011;7976;52.526;13.326;2023-10-19T14:38:36;35.95;;;18.52;;
15748;SDS011;7976;52.526;13.326;2023-10-19T14:41:08;40.25;;;17.80;;
15748;SDS011;7976;52.526;13.326;2023-10-19T14:43:36;40.30;;;17.27;;